N0,26 Fumimaru — JK5398 — position and weather

sailwx.info

Track history (hours):
 
Tides and Currents Weather Stations Pressure Air Temp Water Temp Dewpoint Dewpoint Depression Visibility Wind Speed Wind Dir Waves Ship Positions

N0,26 Fumimaru

Last reported at 2015-Aug-02 19:32 UTC. Time now 2015-Aug-02 20:28 UTC.
Position N 35°40' E 139°59'.

Length 39 m.

Type: Ship. MMSI: 431400427.

Date/timePositionNaut miles runAvg speedWind from/ knotsBaromVisibWave heightAir tempDewpointWater temp
2015-Aug-02 19:32N 35°40' E 139°59'0 0.0
2015-Aug-02 18:32N 35°40' E 139°60'0 0.0
2015-Aug-02 17:32N 35°40' E 139°59'0 0.0
2015-Aug-02 16:29N 35°40' E 139°59'0 0.0
2015-Aug-02 15:32N 35°40' E 139°59'0 0.0
2015-Aug-02 14:32N 35°40' E 139°59'0 0.0
2015-Aug-02 13:32N 35°40' E 139°59'0 0.0
2015-Aug-02 12:29N 35°40' E 139°59'0 0.0
2015-Aug-02 11:32N 35°40' E 139°59'0 0.0
2015-Aug-02 10:32N 35°41' E 139°59'0 0.0
2015-Aug-02 09:29N 35°40' E 139°59'0 0.0
2015-Aug-02 08:29N 35°40' E 139°59'0 0.0
2015-Aug-02 07:29N 35°40' E 139°59'0 0.0
2015-Aug-02 06:32N 35°40' E 139°59'0 0.0
2015-Aug-02 05:29N 35°40' E 139°59'0 0.0
2015-Aug-02 04:32N 35°40' E 139°59'0 0.0
2015-Aug-02 03:29N 35°40' E 139°59'0 0.0
2015-Aug-02 02:32N 35°40' E 139°59'0 0.0
2015-Aug-02 01:32N 35°40' E 139°59'7 7.2
2015-Aug-02 00:33N 35°34' E 139°56'1110.7
2015-Aug-01 23:34N 35°25' E 139°49'10 8.4
2015-Aug-01 22:21N 35°15' E 139°47'911.0
2015-Aug-01 21:31N 35°06' E 139°45'69 1.4
2015-Jul-30 21:20N 35°50' E 140°51'11 3.6
2015-Jul-30 18:22N 36°01' E 140°52'2 1.0
2015-Jul-30 16:32N 36°03' E 140°51'4 3.1
2015-Jul-30 15:13N 35°59' E 140°53'2 3.0
2015-Jul-30 14:32N 35°57' E 140°53'3 3.1
2015-Jul-30 13:31N 35°54' E 140°54'2 1.8
2015-Jul-30 12:30N 35°55' E 140°52'4 4.1
2015-Jul-30 11:33N 35°59' E 140°50'4 3.9
2015-Jul-30 10:33N 36°02' E 140°48'4 3.5
2015-Jul-30 09:29N 36°05' E 140°45'  
2015-Jul-26 20:04N 35°14' E 140°35'42 7.6
2015-Jul-26 14:30N 35°04' E 139°44'1010.7
2015-Jul-26 13:33N 35°14' E 139°46'10 0.3
2015-Jul-24 22:29N 35°23' E 139°42'1010.9
2015-Jul-24 21:33N 35°31' E 139°49'6 0.7
2015-Jul-24 12:25N 35°37' E 139°48'3 3.0
2015-Jul-24 11:33N 35°36' E 139°50'9 7.3
2015-Jul-24 10:20N 35°27' E 139°49'6 7.9
2015-Jul-24 09:32N 35°21' E 139°45'7 7.4
2015-Jul-24 08:31N 35°14' E 139°47'7 7.4
2015-Jul-24 07:33N 35°07' E 139°47'  
Track history (hours):
 
Tides and Currents Weather Stations Pressure Air Temp Water Temp Dewpoint Dewpoint Depression Visibility Wind Speed Wind Dir Waves Ship Positions

N0,26 Fumimaru

Last reported at 2015-Aug-02 19:32 UTC. Time now 2015-Aug-02 20:28 UTC.
Position N 35°40' E 139°59'.

Length 39 m.

Type: Ship. MMSI: 431400427.

Date/timePositionNaut miles runAvg speedWind from/ knotsBaromVisibWave heightAir tempDewpointWater temp
2015-Aug-02 19:32N 35°40' E 139°59'0 0.0
2015-Aug-02 18:32N 35°40' E 139°60'0 0.0
2015-Aug-02 17:32N 35°40' E 139°59'0 0.0
2015-Aug-02 16:29N 35°40' E 139°59'0 0.0
2015-Aug-02 15:32N 35°40' E 139°59'0 0.0
2015-Aug-02 14:32N 35°40' E 139°59'0 0.0
2015-Aug-02 13:32N 35°40' E 139°59'0 0.0
2015-Aug-02 12:29N 35°40' E 139°59'0 0.0
2015-Aug-02 11:32N 35°40' E 139°59'0 0.0
2015-Aug-02 10:32N 35°41' E 139°59'0 0.0
2015-Aug-02 09:29N 35°40' E 139°59'0 0.0
2015-Aug-02 08:29N 35°40' E 139°59'0 0.0
2015-Aug-02 07:29N 35°40' E 139°59'0 0.0
2015-Aug-02 06:32N 35°40' E 139°59'0 0.0
2015-Aug-02 05:29N 35°40' E 139°59'0 0.0
2015-Aug-02 04:32N 35°40' E 139°59'0 0.0
2015-Aug-02 03:29N 35°40' E 139°59'0 0.0
2015-Aug-02 02:32N 35°40' E 139°59'0 0.0
2015-Aug-02 01:32N 35°40' E 139°59'7 7.2
2015-Aug-02 00:33N 35°34' E 139°56'1110.7
2015-Aug-01 23:34N 35°25' E 139°49'10 8.4
2015-Aug-01 22:21N 35°15' E 139°47'911.0
2015-Aug-01 21:31N 35°06' E 139°45'69 1.4
2015-Jul-30 21:20N 35°50' E 140°51'11 3.6
2015-Jul-30 18:22N 36°01' E 140°52'2 1.0
2015-Jul-30 16:32N 36°03' E 140°51'4 3.1
2015-Jul-30 15:13N 35°59' E 140°53'2 3.0
2015-Jul-30 14:32N 35°57' E 140°53'3 3.1
2015-Jul-30 13:31N 35°54' E 140°54'2 1.8
2015-Jul-30 12:30N 35°55' E 140°52'4 4.1
2015-Jul-30 11:33N 35°59' E 140°50'4 3.9
2015-Jul-30 10:33N 36°02' E 140°48'4 3.5
2015-Jul-30 09:29N 36°05' E 140°45'  
2015-Jul-26 20:04N 35°14' E 140°35'42 7.6
2015-Jul-26 14:30N 35°04' E 139°44'1010.7
2015-Jul-26 13:33N 35°14' E 139°46'10 0.3
2015-Jul-24 22:29N 35°23' E 139°42'1010.9
2015-Jul-24 21:33N 35°31' E 139°49'6 0.7
2015-Jul-24 12:25N 35°37' E 139°48'3 3.0
2015-Jul-24 11:33N 35°36' E 139°50'9 7.3
2015-Jul-24 10:20N 35°27' E 139°49'6 7.9
2015-Jul-24 09:32N 35°21' E 139°45'7 7.4
2015-Jul-24 08:31N 35°14' E 139°47'7 7.4
2015-Jul-24 07:33N 35°07' E 139°47'  

Dump ship's entire track history